sensor_id;sensor_type;location;lat;lon;timestamp;P1;durP1;ratioP1;P2;durP2;ratioP2
37199;SDS011;23096;50.892;16.746;2023-09-08T00:00:55;10.80;;;5.00;;
37199;SDS011;23096;50.892;16.746;2023-09-08T00:03:21;7.20;;;5.40;;
37199;SDS011;23096;50.892;16.746;2023-09-08T00:05:47;6.70;;;4.80;;
37199;SDS011;23096;50.892;16.746;2023-09-08T00:08:13;7.90;;;4.80;;
37199;SDS011;23096;50.892;16.746;2023-09-08T00:10:38;10.60;;;6.50;;
37199;SDS011;23096;50.892;16.746;2023-09-08T00:13:04;9.60;;;6.20;;
37199;SDS011;23096;50.892;16.746;2023-09-08T00:15:29;10.10;;;5.70;;
37199;SDS011;23096;50.892;16.746;2023-09-08T00:17:55;7.20;;;5.80;;
37199;SDS011;23096;50.892;16.746;2023-09-08T00:20:22;11.50;;;5.80;;
37199;SDS011;23096;50.892;16.746;2023-09-08T00:22:48;7.40;;;5.90;;
37199;SDS011;23096;50.892;16.746;2023-09-08T00:25:13;9.20;;;5.50;;
37199;SDS011;23096;50.892;16.746;2023-09-08T00:27:39;9.90;;;6.40;;
37199;SDS011;23096;50.892;16.746;2023-09-08T00:30:05;11.60;;;5.80;;
37199;SDS011;23096;50.892;16.746;2023-09-08T00:32:31;9.90;;;6.60;;
37199;SDS011;23096;50.892;16.746;2023-09-08T00:34:59;8.70;;;6.40;;
37199;SDS011;23096;50.892;16.746;2023-09-08T00:37:24;8.90;;;6.50;;
37199;SDS011;23096;50.892;16.746;2023-09-08T00:39:50;10.10;;;6.30;;
37199;SDS011;23096;50.892;16.746;2023-09-08T00:42:15;7.70;;;5.50;;
37199;SDS011;23096;50.892;16.746;2023-09-08T00:44:41;11.00;;;6.60;;
37199;SDS011;23096;50.892;16.746;2023-09-08T00:47:07;9.40;;;6.00;;
37199;SDS011;23096;50.892;16.746;2023-09-08T00:49:32;7.40;;;5.80;;
37199;SDS011;23096;50.892;16.746;2023-09-08T00:51:58;8.10;;;5.70;;
37199;SDS011;23096;50.892;16.746;2023-09-08T00:54:24;9.60;;;6.50;;
37199;SDS011;23096;50.892;16.746;2023-09-08T00:56:52;8.90;;;6.70;;
37199;SDS011;23096;50.892;16.746;2023-09-08T00:59:22;6.50;;;5.70;;
37199;SDS011;23096;50.892;16.746;2023-09-08T01:01:48;10.40;;;5.80;;
37199;SDS011;23096;50.892;16.746;2023-09-08T01:04:13;10.30;;;7.00;;
37199;SDS011;23096;50.892;16.746;2023-09-08T01:06:39;7.70;;;5.80;;
37199;SDS011;23096;50.892;16.746;2023-09-08T01:09:04;8.30;;;5.80;;
37199;SDS011;23096;50.892;16.746;2023-09-08T01:11:31;12.60;;;7.70;;
37199;SDS011;23096;50.892;16.746;2023-09-08T01:13:57;6.70;;;5.90;;
37199;SDS011;23096;50.892;16.746;2023-09-08T01:16:22;13.40;;;6.30;;
37199;SDS011;23096;50.892;16.746;2023-09-08T01:18:48;9.80;;;6.70;;
37199;SDS011;23096;50.892;16.746;2023-09-08T01:26:58;8.30;;;6.50;;
37199;SDS011;23096;50.892;16.746;2023-09-08T01:29:24;8.60;;;6.40;;
37199;SDS011;23096;50.892;16.746;2023-09-08T01:31:53;9.60;;;6.60;;
37199;SDS011;23096;50.892;16.746;2023-09-08T01:34:18;8.50;;;6.40;;
37199;SDS011;23096;50.892;16.746;2023-09-08T01:36:45;7.50;;;6.70;;
37199;SDS011;23096;50.892;16.746;2023-09-08T01:39:10;7.60;;;6.10;;
37199;SDS011;23096;50.892;16.746;2023-09-08T01:41:36;8.40;;;6.60;;
37199;SDS011;23096;50.892;16.746;2023-09-08T01:44:02;9.50;;;6.50;;
37199;SDS011;23096;50.892;16.746;2023-09-08T01:46:33;7.50;;;5.80;;
37199;SDS011;23096;50.892;16.746;2023-09-08T01:48:59;16.60;;;6.60;;
37199;SDS011;23096;50.892;16.746;2023-09-08T01:51:24;8.10;;;6.60;;
37199;SDS011;23096;50.892;16.746;2023-09-08T01:53:50;9.00;;;7.30;;
37199;SDS011;23096;50.892;16.746;2023-09-08T01:56:16;9.70;;;7.00;;
37199;SDS011;23096;50.892;16.746;2023-09-08T01:58:41;12.60;;;6.60;;
37199;SDS011;23096;50.892;16.746;2023-09-08T02:01:07;7.10;;;6.00;;
37199;SDS011;23096;50.892;16.746;2023-09-08T02:03:34;9.80;;;6.90;;
37199;SDS011;23096;50.892;16.746;2023-09-08T02:05:59;12.50;;;7.80;;
37199;SDS011;23096;50.892;16.746;2023-09-08T02:08:25;8.40;;;6.40;;
37199;SDS011;23096;50.892;16.746;2023-09-08T02:10:50;9.40;;;6.10;;
37199;SDS011;23096;50.892;16.746;2023-09-08T02:13:16;9.20;;;6.00;;
37199;SDS011;23096;50.892;16.746;2023-09-08T02:15:42;6.50;;;5.70;;
37199;SDS011;23096;50.892;16.746;2023-09-08T02:18:08;7.30;;;4.70;;
37199;SDS011;23096;50.892;16.746;2023-09-08T02:20:34;8.90;;;7.30;;
37199;SDS011;23096;50.892;16.746;2023-09-08T02:23:03;8.10;;;6.30;;
37199;SDS011;23096;50.892;16.746;2023-09-08T02:25:31;8.40;;;6.30;;
37199;SDS011;23096;50.892;16.746;2023-09-08T02:27:57;10.10;;;6.90;;
37199;SDS011;23096;50.892;16.746;2023-09-08T02:30:23;6.90;;;6.10;;
37199;SDS011;23096;50.892;16.746;2023-09-08T02:33:28;7.50;;;5.40;;
37199;SDS011;23096;50.892;16.746;2023-09-08T02:35:54;7.70;;;5.80;;
37199;SDS011;23096;50.892;16.746;2023-09-08T02:38:20;10.60;;;6.20;;
37199;SDS011;23096;50.892;16.746;2023-09-08T02:40:46;11.30;;;5.90;;
37199;SDS011;23096;50.892;16.746;2023-09-08T02:43:14;10.80;;;6.10;;
37199;SDS011;23096;50.892;16.746;2023-09-08T02:45:41;9.90;;;6.60;;
37199;SDS011;23096;50.892;16.746;2023-09-08T02:48:06;8.40;;;6.30;;
37199;SDS011;23096;50.892;16.746;2023-09-08T02:50:32;9.30;;;6.40;;
37199;SDS011;23096;50.892;16.746;2023-09-08T02:52:57;10.10;;;6.10;;
37199;SDS011;23096;50.892;16.746;2023-09-08T02:55:23;11.10;;;6.70;;
37199;SDS011;23096;50.892;16.746;2023-09-08T02:57:48;11.40;;;8.80;;
37199;SDS011;23096;50.892;16.746;2023-09-08T03:00:14;9.70;;;7.00;;
37199;SDS011;23096;50.892;16.746;2023-09-08T03:02:40;10.00;;;7.90;;
37199;SDS011;23096;50.892;16.746;2023-09-08T03:05:05;10.00;;;6.80;;
37199;SDS011;23096;50.892;16.746;2023-09-08T03:07:32;9.40;;;6.80;;
37199;SDS011;23096;50.892;16.746;2023-09-08T03:10:01;13.10;;;7.80;;
37199;SDS011;23096;50.892;16.746;2023-09-08T03:12:28;11.10;;;7.10;;
37199;SDS011;23096;50.892;16.746;2023-09-08T03:14:55;9.20;;;7.60;;
37199;SDS011;23096;50.892;16.746;2023-09-08T03:17:21;10.00;;;7.60;;
37199;SDS011;23096;50.892;16.746;2023-09-08T03:19:47;8.70;;;7.50;;
37199;SDS011;23096;50.892;16.746;2023-09-08T03:22:12;9.80;;;7.40;;
37199;SDS011;23096;50.892;16.746;2023-09-08T03:24:38;8.90;;;7.10;;
37199;SDS011;23096;50.892;16.746;2023-09-08T03:27:04;9.70;;;7.40;;
37199;SDS011;23096;50.892;16.746;2023-09-08T03:29:29;10.10;;;7.80;;
37199;SDS011;23096;50.892;16.746;2023-09-08T03:31:54;11.20;;;7.30;;
37199;SDS011;23096;50.892;16.746;2023-09-08T03:34:20;9.20;;;6.70;;
37199;SDS011;23096;50.892;16.746;2023-09-08T03:36:47;9.00;;;7.50;;
37199;SDS011;23096;50.892;16.746;2023-09-08T03:39:14;10.60;;;8.50;;
37199;SDS011;23096;50.892;16.746;2023-09-08T03:41:39;11.70;;;7.30;;
37199;SDS011;23096;50.892;16.746;2023-09-08T03:44:05;11.90;;;8.00;;
37199;SDS011;23096;50.892;16.746;2023-09-08T03:46:30;9.80;;;8.10;;
37199;SDS011;23096;50.892;16.746;2023-09-08T03:48:56;8.80;;;6.70;;
37199;SDS011;23096;50.892;16.746;2023-09-08T03:51:26;10.20;;;7.20;;
37199;SDS011;23096;50.892;16.746;2023-09-08T03:53:52;10.50;;;6.80;;
37199;SDS011;23096;50.892;16.746;2023-09-08T03:56:18;9.10;;;7.50;;
37199;SDS011;23096;50.892;16.746;2023-09-08T03:58:45;9.30;;;7.40;;
37199;SDS011;23096;50.892;16.746;2023-09-08T04:01:11;8.90;;;7.10;;
37199;SDS011;23096;50.892;16.746;2023-09-08T04:03:37;9.20;;;6.80;;
37199;SDS011;23096;50.892;16.746;2023-09-08T04:06:03;10.40;;;6.30;;
37199;SDS011;23096;50.892;16.746;2023-09-08T04:08:29;7.60;;;6.40;;
37199;SDS011;23096;50.892;16.746;2023-09-08T04:10:54;7.50;;;6.30;;
37199;SDS011;23096;50.892;16.746;2023-09-08T04:13:20;8.60;;;6.70;;
37199;SDS011;23096;50.892;16.746;2023-09-08T04:15:45;9.00;;;6.70;;
37199;SDS011;23096;50.892;16.746;2023-09-08T04:18:11;9.80;;;6.70;;
37199;SDS011;23096;50.892;16.746;2023-09-08T04:20:36;11.30;;;7.20;;
37199;SDS011;23096;50.892;16.746;2023-09-08T04:23:02;11.30;;;6.20;;
37199;SDS011;23096;50.892;16.746;2023-09-08T04:25:27;9.30;;;6.10;;
37199;SDS011;23096;50.892;16.746;2023-09-08T04:27:53;9.80;;;6.40;;
37199;SDS011;23096;50.892;16.746;2023-09-08T04:30:18;10.00;;;6.20;;
37199;SDS011;23096;50.892;16.746;2023-09-08T04:32:44;13.80;;;6.40;;
37199;SDS011;23096;50.892;16.746;2023-09-08T04:35:09;8.00;;;6.70;;
37199;SDS011;23096;50.892;16.746;2023-09-08T04:37:35;13.30;;;7.30;;
37199;SDS011;23096;50.892;16.746;2023-09-08T04:40:03;12.50;;;6.80;;
37199;SDS011;23096;50.892;16.746;2023-09-08T04:42:29;8.80;;;6.90;;
37199;SDS011;23096;50.892;16.746;2023-09-08T04:44:56;8.70;;;6.90;;
37199;SDS011;23096;50.892;16.746;2023-09-08T04:47:22;9.00;;;7.10;;
37199;SDS011;23096;50.892;16.746;2023-09-08T04:49:47;8.50;;;6.60;;
37199;SDS011;23096;50.892;16.746;2023-09-08T04:52:13;9.90;;;6.30;;
37199;SDS011;23096;50.892;16.746;2023-09-08T04:54:40;6.90;;;6.00;;
37199;SDS011;23096;50.892;16.746;2023-09-08T04:57:05;7.50;;;5.70;;
37199;SDS011;23096;50.892;16.746;2023-09-08T04:59:31;10.60;;;7.60;;
37199;SDS011;23096;50.892;16.746;2023-09-08T05:01:58;9.30;;;7.00;;
37199;SDS011;23096;50.892;16.746;2023-09-08T05:04:24;10.30;;;6.80;;
37199;SDS011;23096;50.892;16.746;2023-09-08T05:06:50;9.00;;;7.00;;
37199;SDS011;23096;50.892;16.746;2023-09-08T05:09:17;8.20;;;6.90;;
37199;SDS011;23096;50.892;16.746;2023-09-08T05:11:42;7.60;;;6.40;;
37199;SDS011;23096;50.892;16.746;2023-09-08T05:14:08;9.00;;;7.20;;
37199;SDS011;23096;50.892;16.746;2023-09-08T05:16:35;11.50;;;6.90;;
37199;SDS011;23096;50.892;16.746;2023-09-08T05:19:11;10.90;;;7.90;;
37199;SDS011;23096;50.892;16.746;2023-09-08T05:21:38;11.00;;;7.70;;
37199;SDS011;23096;50.892;16.746;2023-09-08T05:24:05;11.90;;;9.00;;
37199;SDS011;23096;50.892;16.746;2023-09-08T05:26:31;13.60;;;8.80;;
37199;SDS011;23096;50.892;16.746;2023-09-08T05:28:57;8.90;;;7.80;;
37199;SDS011;23096;50.892;16.746;2023-09-08T05:31:23;13.30;;;8.50;;
37199;SDS011;23096;50.892;16.746;2023-09-08T05:33:48;11.40;;;8.60;;
37199;SDS011;23096;50.892;16.746;2023-09-08T05:36:14;14.90;;;8.90;;
37199;SDS011;23096;50.892;16.746;2023-09-08T05:38:39;12.30;;;8.80;;
37199;SDS011;23096;50.892;16.746;2023-09-08T05:41:05;9.40;;;8.40;;
37199;SDS011;23096;50.892;16.746;2023-09-08T05:43:31;14.70;;;8.00;;
37199;SDS011;23096;50.892;16.746;2023-09-08T05:45:56;11.20;;;8.60;;
37199;SDS011;23096;50.892;16.746;2023-09-08T05:48:22;12.90;;;9.70;;
37199;SDS011;23096;50.892;16.746;2023-09-08T05:50:48;9.40;;;8.10;;
37199;SDS011;23096;50.892;16.746;2023-09-08T05:53:14;14.70;;;9.20;;
37199;SDS011;23096;50.892;16.746;2023-09-08T05:55:40;11.70;;;9.30;;
37199;SDS011;23096;50.892;16.746;2023-09-08T05:58:05;15.30;;;8.50;;
37199;SDS011;23096;50.892;16.746;2023-09-08T06:00:32;11.50;;;8.40;;
37199;SDS011;23096;50.892;16.746;2023-09-08T06:02:59;12.00;;;8.60;;
37199;SDS011;23096;50.892;16.746;2023-09-08T06:05:25;12.50;;;8.10;;
37199;SDS011;23096;50.892;16.746;2023-09-08T06:07:50;12.00;;;8.50;;
37199;SDS011;23096;50.892;16.746;2023-09-08T06:10:16;9.60;;;7.60;;
37199;SDS011;23096;50.892;16.746;2023-09-08T06:12:42;10.10;;;6.80;;
37199;SDS011;23096;50.892;16.746;2023-09-08T06:15:08;9.20;;;7.80;;
37199;SDS011;23096;50.892;16.746;2023-09-08T06:17:34;8.40;;;7.20;;
37199;SDS011;23096;50.892;16.746;2023-09-08T06:20:00;9.50;;;8.00;;
37199;SDS011;23096;50.892;16.746;2023-09-08T06:22:26;10.50;;;7.30;;
37199;SDS011;23096;50.892;16.746;2023-09-08T06:24:52;9.70;;;6.90;;
37199;SDS011;23096;50.892;16.746;2023-09-08T06:27:18;15.30;;;8.80;;
37199;SDS011;23096;50.892;16.746;2023-09-08T06:29:43;12.10;;;7.90;;
37199;SDS011;23096;50.892;16.746;2023-09-08T06:32:10;10.70;;;7.70;;
37199;SDS011;23096;50.892;16.746;2023-09-08T06:34:37;11.00;;;8.90;;
37199;SDS011;23096;50.892;16.746;2023-09-08T06:37:03;12.10;;;9.20;;
37199;SDS011;23096;50.892;16.746;2023-09-08T06:39:29;10.10;;;8.50;;
37199;SDS011;23096;50.892;16.746;2023-09-08T06:41:54;14.30;;;10.60;;
37199;SDS011;23096;50.892;16.746;2023-09-08T06:44:20;11.20;;;8.60;;
37199;SDS011;23096;50.892;16.746;2023-09-08T06:46:46;11.00;;;8.90;;
37199;SDS011;23096;50.892;16.746;2023-09-08T06:49:12;12.60;;;9.20;;
37199;SDS011;23096;50.892;16.746;2023-09-08T06:51:38;10.60;;;9.10;;
37199;SDS011;23096;50.892;16.746;2023-09-08T06:54:04;11.90;;;8.80;;
37199;SDS011;23096;50.892;16.746;2023-09-08T06:56:36;12.40;;;9.30;;
37199;SDS011;23096;50.892;16.746;2023-09-08T06:59:03;9.80;;;8.70;;
37199;SDS011;23096;50.892;16.746;2023-09-08T07:01:29;12.70;;;10.40;;
37199;SDS011;23096;50.892;16.746;2023-09-08T07:03:54;12.90;;;9.40;;
37199;SDS011;23096;50.892;16.746;2023-09-08T07:06:20;18.50;;;9.90;;
37199;SDS011;23096;50.892;16.746;2023-09-08T07:08:48;18.60;;;11.10;;
37199;SDS011;23096;50.892;16.746;2023-09-08T07:11:17;20.10;;;11.10;;
37199;SDS011;23096;50.892;16.746;2023-09-08T07:13:43;13.40;;;10.10;;
37199;SDS011;23096;50.892;16.746;2023-09-08T07:16:10;12.60;;;9.80;;
37199;SDS011;23096;50.892;16.746;2023-09-08T07:18:36;14.40;;;10.50;;
37199;SDS011;23096;50.892;16.746;2023-09-08T07:21:03;9.80;;;8.70;;
37199;SDS011;23096;50.892;16.746;2023-09-08T07:23:29;12.40;;;9.50;;
37199;SDS011;23096;50.892;16.746;2023-09-08T07:25:55;22.10;;;10.60;;
37199;SDS011;23096;50.892;16.746;2023-09-08T07:28:23;13.70;;;9.60;;
37199;SDS011;23096;50.892;16.746;2023-09-08T07:30:49;15.20;;;9.60;;
37199;SDS011;23096;50.892;16.746;2023-09-08T07:33:15;14.00;;;10.10;;
37199;SDS011;23096;50.892;16.746;2023-09-08T07:35:42;12.00;;;10.40;;
37199;SDS011;23096;50.892;16.746;2023-09-08T07:38:07;13.00;;;9.80;;
37199;SDS011;23096;50.892;16.746;2023-09-08T07:40:33;12.00;;;10.40;;
37199;SDS011;23096;50.892;16.746;2023-09-08T07:42:59;18.10;;;10.40;;
37199;SDS011;23096;50.892;16.746;2023-09-08T07:45:24;11.90;;;10.10;;
37199;SDS011;23096;50.892;16.746;2023-09-08T07:47:50;10.50;;;9.20;;
37199;SDS011;23096;50.892;16.746;2023-09-08T07:50:20;16.70;;;11.10;;
37199;SDS011;23096;50.892;16.746;2023-09-08T07:52:48;14.00;;;10.00;;
37199;SDS011;23096;50.892;16.746;2023-09-08T07:55:15;11.50;;;9.40;;
37199;SDS011;23096;50.892;16.746;2023-09-08T07:57:41;14.20;;;9.10;;
37199;SDS011;23096;50.892;16.746;2023-09-08T08:00:08;12.30;;;10.00;;
37199;SDS011;23096;50.892;16.746;2023-09-08T08:02:43;13.40;;;9.40;;
37199;SDS011;23096;50.892;16.746;2023-09-08T08:07:36;11.40;;;9.20;;
37199;SDS011;23096;50.892;16.746;2023-09-08T08:10:01;10.70;;;7.90;;
37199;SDS011;23096;50.892;16.746;2023-09-08T08:12:27;11.40;;;8.60;;
37199;SDS011;23096;50.892;16.746;2023-09-08T08:14:52;15.40;;;9.30;;
37199;SDS011;23096;50.892;16.746;2023-09-08T08:17:18;15.70;;;9.80;;
37199;SDS011;23096;50.892;16.746;2023-09-08T08:19:45;15.60;;;10.60;;
37199;SDS011;23096;50.892;16.746;2023-09-08T08:22:10;10.90;;;8.30;;
37199;SDS011;23096;50.892;16.746;2023-09-08T08:24:36;12.60;;;8.90;;
37199;SDS011;23096;50.892;16.746;2023-09-08T08:27:01;11.70;;;8.60;;
37199;SDS011;23096;50.892;16.746;2023-09-08T08:29:28;10.80;;;8.70;;
37199;SDS011;23096;50.892;16.746;2023-09-08T08:31:54;12.20;;;9.50;;
37199;SDS011;23096;50.892;16.746;2023-09-08T08:34:20;13.00;;;9.40;;
37199;SDS011;23096;50.892;16.746;2023-09-08T08:36:45;10.10;;;8.90;;
37199;SDS011;23096;50.892;16.746;2023-09-08T08:39:10;12.10;;;9.40;;
37199;SDS011;23096;50.892;16.746;2023-09-08T08:41:36;12.70;;;8.50;;
37199;SDS011;23096;50.892;16.746;2023-09-08T08:44:07;13.10;;;9.10;;
37199;SDS011;23096;50.892;16.746;2023-09-08T08:46:33;12.00;;;10.70;;
37199;SDS011;23096;50.892;16.746;2023-09-08T08:49:02;11.50;;;9.10;;
37199;SDS011;23096;50.892;16.746;2023-09-08T08:51:30;14.20;;;9.10;;
37199;SDS011;23096;50.892;16.746;2023-09-08T08:53:56;12.50;;;8.20;;
37199;SDS011;23096;50.892;16.746;2023-09-08T08:56:22;13.50;;;9.30;;
37199;SDS011;23096;50.892;16.746;2023-09-08T08:58:49;10.10;;;8.70;;
37199;SDS011;23096;50.892;16.746;2023-09-08T09:01:18;9.00;;;7.40;;
37199;SDS011;23096;50.892;16.746;2023-09-08T09:03:48;11.50;;;8.50;;
37199;SDS011;23096;50.892;16.746;2023-09-08T09:06:15;11.50;;;8.60;;
37199;SDS011;23096;50.892;16.746;2023-09-08T09:08:42;15.00;;;8.60;;
37199;SDS011;23096;50.892;16.746;2023-09-08T09:11:09;13.80;;;8.00;;
37199;SDS011;23096;50.892;16.746;2023-09-08T09:13:35;8.10;;;6.90;;
37199;SDS011;23096;50.892;16.746;2023-09-08T09:16:00;8.10;;;6.60;;
37199;SDS011;23096;50.892;16.746;2023-09-08T09:18:31;12.90;;;7.90;;
37199;SDS011;23096;50.892;16.746;2023-09-08T09:20:58;9.60;;;7.30;;
37199;SDS011;23096;50.892;16.746;2023-09-08T09:25:57;9.50;;;7.00;;
37199;SDS011;23096;50.892;16.746;2023-09-08T09:28:24;10.60;;;7.10;;
37199;SDS011;23096;50.892;16.746;2023-09-08T09:30:51;7.90;;;6.10;;
37199;SDS011;23096;50.892;16.746;2023-09-08T09:33:19;8.00;;;6.50;;
37199;SDS011;23096;50.892;16.746;2023-09-08T09:35:46;10.20;;;7.70;;
37199;SDS011;23096;50.892;16.746;2023-09-08T09:38:17;7.20;;;6.40;;
37199;SDS011;23096;50.892;16.746;2023-09-08T09:40:44;12.30;;;6.80;;
37199;SDS011;23096;50.892;16.746;2023-09-08T09:43:11;7.70;;;6.20;;
37199;SDS011;23096;50.892;16.746;2023-09-08T09:45:37;20.30;;;6.90;;
37199;SDS011;23096;50.892;16.746;2023-09-08T09:48:04;10.70;;;6.90;;
37199;SDS011;23096;50.892;16.746;2023-09-08T09:50:32;10.60;;;7.20;;
37199;SDS011;23096;50.892;16.746;2023-09-08T09:53:23;10.40;;;7.00;;
37199;SDS011;23096;50.892;16.746;2023-09-08T09:55:47;8.90;;;6.60;;
37199;SDS011;23096;50.892;16.746;2023-09-08T09:58:13;8.20;;;6.30;;
37199;SDS011;23096;50.892;16.746;2023-09-08T10:00:39;13.90;;;7.40;;
37199;SDS011;23096;50.892;16.746;2023-09-08T10:03:06;11.60;;;8.60;;
37199;SDS011;23096;50.892;16.746;2023-09-08T10:05:33;9.90;;;6.60;;
37199;SDS011;23096;50.892;16.746;2023-09-08T10:07:59;11.30;;;6.00;;
37199;SDS011;23096;50.892;16.746;2023-09-08T10:10:26;9.20;;;6.40;;
37199;SDS011;23096;50.892;16.746;2023-09-08T10:12:55;10.50;;;5.90;;
37199;SDS011;23096;50.892;16.746;2023-09-08T10:15:22;8.50;;;6.00;;
37199;SDS011;23096;50.892;16.746;2023-09-08T10:17:53;6.70;;;5.70;;
37199;SDS011;23096;50.892;16.746;2023-09-08T10:20:24;7.80;;;6.30;;
37199;SDS011;23096;50.892;16.746;2023-09-08T10:22:54;10.00;;;6.80;;
37199;SDS011;23096;50.892;16.746;2023-09-08T10:25:26;11.70;;;7.40;;
37199;SDS011;23096;50.892;16.746;2023-09-08T10:27:56;10.30;;;6.00;;
37199;SDS011;23096;50.892;16.746;2023-09-08T10:30:23;9.90;;;6.00;;
37199;SDS011;23096;50.892;16.746;2023-09-08T10:32:49;9.30;;;5.50;;
37199;SDS011;23096;50.892;16.746;2023-09-08T10:35:16;7.70;;;5.70;;
37199;SDS011;23096;50.892;16.746;2023-09-08T10:37:44;7.10;;;5.20;;
37199;SDS011;23096;50.892;16.746;2023-09-08T10:40:22;14.50;;;6.30;;
37199;SDS011;23096;50.892;16.746;2023-09-08T10:42:49;7.90;;;5.60;;
37199;SDS011;23096;50.892;16.746;2023-09-08T10:45:30;7.70;;;5.50;;
37199;SDS011;23096;50.892;16.746;2023-09-08T10:47:56;6.50;;;5.20;;
37199;SDS011;23096;50.892;16.746;2023-09-08T10:50:32;7.50;;;5.50;;
37199;SDS011;23096;50.892;16.746;2023-09-08T10:55:40;10.00;;;5.50;;
37199;SDS011;23096;50.892;16.746;2023-09-08T10:58:11;12.60;;;5.70;;
37199;SDS011;23096;50.892;16.746;2023-09-08T11:00:43;7.00;;;5.20;;
37199;SDS011;23096;50.892;16.746;2023-09-08T11:03:10;6.90;;;5.10;;
37199;SDS011;23096;50.892;16.746;2023-09-08T11:05:36;4.90;;;4.30;;
37199;SDS011;23096;50.892;16.746;2023-09-08T11:08:02;6.50;;;4.80;;
37199;SDS011;23096;50.892;16.746;2023-09-08T11:10:29;5.60;;;4.30;;
37199;SDS011;23096;50.892;16.746;2023-09-08T11:12:55;6.70;;;5.30;;
37199;SDS011;23096;50.892;16.746;2023-09-08T11:15:21;6.20;;;4.20;;
37199;SDS011;23096;50.892;16.746;2023-09-08T11:17:47;8.40;;;4.60;;
37199;SDS011;23096;50.892;16.746;2023-09-08T11:20:16;5.90;;;5.00;;
37199;SDS011;23096;50.892;16.746;2023-09-08T11:22:41;7.50;;;4.50;;
37199;SDS011;23096;50.892;16.746;2023-09-08T11:25:09;10.70;;;5.00;;
37199;SDS011;23096;50.892;16.746;2023-09-08T11:27:37;8.10;;;5.00;;
37199;SDS011;23096;50.892;16.746;2023-09-08T11:30:06;7.30;;;4.40;;
37199;SDS011;23096;50.892;16.746;2023-09-08T11:32:33;5.90;;;4.70;;
37199;SDS011;23096;50.892;16.746;2023-09-08T11:35:06;5.70;;;4.70;;
37199;SDS011;23096;50.892;16.746;2023-09-08T11:37:36;9.50;;;5.00;;
37199;SDS011;23096;50.892;16.746;2023-09-08T11:40:03;10.70;;;6.20;;
37199;SDS011;23096;50.892;16.746;2023-09-08T11:42:34;5.60;;;4.50;;
37199;SDS011;23096;50.892;16.746;2023-09-08T11:45:00;6.60;;;4.20;;
37199;SDS011;23096;50.892;16.746;2023-09-08T11:47:28;6.90;;;4.90;;
37199;SDS011;23096;50.892;16.746;2023-09-08T11:49:55;6.60;;;4.80;;
37199;SDS011;23096;50.892;16.746;2023-09-08T11:52:22;7.70;;;5.20;;
37199;SDS011;23096;50.892;16.746;2023-09-08T11:54:48;5.80;;;4.70;;
37199;SDS011;23096;50.892;16.746;2023-09-08T11:57:14;5.30;;;4.20;;
37199;SDS011;23096;50.892;16.746;2023-09-08T11:59:40;7.10;;;5.00;;
37199;SDS011;23096;50.892;16.746;2023-09-08T12:02:06;6.40;;;5.10;;
37199;SDS011;23096;50.892;16.746;2023-09-08T12:04:34;6.60;;;4.90;;
37199;SDS011;23096;50.892;16.746;2023-09-08T12:07:01;6.00;;;4.80;;
37199;SDS011;23096;50.892;16.746;2023-09-08T12:09:27;10.40;;;4.50;;
37199;SDS011;23096;50.892;16.746;2023-09-08T12:11:52;6.70;;;4.50;;
37199;SDS011;23096;50.892;16.746;2023-09-08T12:14:18;5.40;;;4.10;;
37199;SDS011;23096;50.892;16.746;2023-09-08T12:16:43;5.70;;;4.70;;
37199;SDS011;23096;50.892;16.746;2023-09-08T12:19:30;9.00;;;5.20;;
37199;SDS011;23096;50.892;16.746;2023-09-08T12:22:02;4.50;;;3.90;;
37199;SDS011;23096;50.892;16.746;2023-09-08T12:24:49;6.10;;;4.20;;
37199;SDS011;23096;50.892;16.746;2023-09-08T12:27:24;7.00;;;4.50;;
37199;SDS011;23096;50.892;16.746;2023-09-08T12:29:56;7.90;;;4.80;;
37199;SDS011;23096;50.892;16.746;2023-09-08T12:32:22;5.00;;;3.60;;
37199;SDS011;23096;50.892;16.746;2023-09-08T12:34:49;5.50;;;3.90;;
37199;SDS011;23096;50.892;16.746;2023-09-08T12:37:19;4.60;;;3.90;;
37199;SDS011;23096;50.892;16.746;2023-09-08T12:39:45;8.90;;;4.10;;
37199;SDS011;23096;50.892;16.746;2023-09-08T12:42:11;8.70;;;4.10;;
37199;SDS011;23096;50.892;16.746;2023-09-08T12:44:37;5.40;;;4.20;;
37199;SDS011;23096;50.892;16.746;2023-09-08T12:47:03;4.80;;;3.60;;
37199;SDS011;23096;50.892;16.746;2023-09-08T12:49:28;4.70;;;4.20;;
37199;SDS011;23096;50.892;16.746;2023-09-08T12:51:54;7.60;;;4.10;;
37199;SDS011;23096;50.892;16.746;2023-09-08T12:54:19;6.40;;;4.00;;
37199;SDS011;23096;50.892;16.746;2023-09-08T12:56:45;9.50;;;3.90;;
37199;SDS011;23096;50.892;16.746;2023-09-08T12:59:10;5.10;;;3.90;;
37199;SDS011;23096;50.892;16.746;2023-09-08T13:01:36;5.00;;;3.60;;
37199;SDS011;23096;50.892;16.746;2023-09-08T13:04:01;5.10;;;3.80;;
37199;SDS011;23096;50.892;16.746;2023-09-08T13:06:27;4.90;;;4.10;;
37199;SDS011;23096;50.892;16.746;2023-09-08T13:08:52;5.20;;;4.30;;
37199;SDS011;23096;50.892;16.746;2023-09-08T13:11:18;5.70;;;4.30;;
37199;SDS011;23096;50.892;16.746;2023-09-08T13:13:43;7.10;;;3.50;;
37199;SDS011;23096;50.892;16.746;2023-09-08T13:16:09;5.70;;;4.00;;
37199;SDS011;23096;50.892;16.746;2023-09-08T13:18:34;7.50;;;4.00;;
37199;SDS011;23096;50.892;16.746;2023-09-08T13:21:04;10.00;;;4.40;;
37199;SDS011;23096;50.892;16.746;2023-09-08T13:23:29;4.80;;;3.70;;
37199;SDS011;23096;50.892;16.746;2023-09-08T13:25:55;6.00;;;3.80;;
37199;SDS011;23096;50.892;16.746;2023-09-08T13:28:20;5.30;;;4.00;;
37199;SDS011;23096;50.892;16.746;2023-09-08T13:30:46;3.70;;;3.30;;
37199;SDS011;23096;50.892;16.746;2023-09-08T13:33:11;5.90;;;4.30;;
37199;SDS011;23096;50.892;16.746;2023-09-08T13:35:37;3.70;;;3.30;;
37199;SDS011;23096;50.892;16.746;2023-09-08T13:38:04;4.50;;;3.70;;
37199;SDS011;23096;50.892;16.746;2023-09-08T13:40:30;8.70;;;4.20;;
37199;SDS011;23096;50.892;16.746;2023-09-08T13:42:56;5.80;;;4.00;;
37199;SDS011;23096;50.892;16.746;2023-09-08T13:45:21;5.00;;;3.40;;
37199;SDS011;23096;50.892;16.746;2023-09-08T13:47:47;4.40;;;3.90;;
37199;SDS011;23096;50.892;16.746;2023-09-08T13:50:13;6.10;;;4.10;;
37199;SDS011;23096;50.892;16.746;2023-09-08T13:52:39;5.40;;;4.10;;
37199;SDS011;23096;50.892;16.746;2023-09-08T13:55:07;7.00;;;3.80;;
37199;SDS011;23096;50.892;16.746;2023-09-08T13:57:33;5.90;;;3.90;;
37199;SDS011;23096;50.892;16.746;2023-09-08T13:59:59;4.90;;;4.10;;
37199;SDS011;23096;50.892;16.746;2023-09-08T14:02:24;5.00;;;3.60;;
37199;SDS011;23096;50.892;16.746;2023-09-08T14:04:51;7.10;;;4.50;;
37199;SDS011;23096;50.892;16.746;2023-09-08T14:07:16;5.00;;;3.80;;
37199;SDS011;23096;50.892;16.746;2023-09-08T14:09:42;5.90;;;4.20;;
37199;SDS011;23096;50.892;16.746;2023-09-08T14:12:07;6.20;;;4.00;;
37199;SDS011;23096;50.892;16.746;2023-09-08T14:14:33;6.20;;;4.10;;
37199;SDS011;23096;50.892;16.746;2023-09-08T14:16:59;5.40;;;4.10;;
37199;SDS011;23096;50.892;16.746;2023-09-08T14:19:24;5.20;;;3.70;;
37199;SDS011;23096;50.892;16.746;2023-09-08T14:21:50;5.40;;;4.00;;
37199;SDS011;23096;50.892;16.746;2023-09-08T14:24:15;6.10;;;4.30;;
37199;SDS011;23096;50.892;16.746;2023-09-08T14:26:40;9.50;;;4.60;;
37199;SDS011;23096;50.892;16.746;2023-09-08T14:29:06;4.50;;;4.00;;
37199;SDS011;23096;50.892;16.746;2023-09-08T14:31:31;5.20;;;4.30;;
37199;SDS011;23096;50.892;16.746;2023-09-08T14:33:57;4.40;;;4.00;;
37199;SDS011;23096;50.892;16.746;2023-09-08T14:36:22;6.90;;;4.50;;
37199;SDS011;23096;50.892;16.746;2023-09-08T14:38:49;3.80;;;3.40;;